sensor_id;sensor_type;location;lat;lon;timestamp;pressure;altitude;pressure_sealevel;temperature;humidity
36234;BME280;43467;50.890;5.982;2023-01-26T00:00:27;101114.31;;;1.34;70.55
36234;BME280;43467;50.890;5.982;2023-01-26T00:02:52;101127.41;;;1.42;71.19
36234;BME280;43467;50.890;5.982;2023-01-26T00:05:17;101129.13;;;1.43;70.76
36234;BME280;43467;50.890;5.982;2023-01-26T00:07:43;101117.81;;;1.38;70.54
36234;BME280;43467;50.890;5.982;2023-01-26T00:10:10;101116.03;;;1.29;70.95
36234;BME280;43467;50.890;5.982;2023-01-26T00:12:35;101108.22;;;1.37;71.40
36234;BME280;43467;50.890;5.982;2023-01-26T00:15:01;101097.88;;;1.55;70.77
36234;BME280;43467;50.890;5.982;2023-01-26T00:17:26;101088.38;;;1.69;70.44
36234;BME280;43467;50.890;5.982;2023-01-26T00:19:53;101096.19;;;1.68;70.57
36234;BME280;43467;50.890;5.982;2023-01-26T00:22:19;101092.78;;;1.88;70.04
36234;BME280;43467;50.890;5.982;2023-01-26T00:24:45;101088.47;;;1.95;69.48
36234;BME280;43467;50.890;5.982;2023-01-26T00:27:10;101078.91;;;2.03;69.35
36234;BME280;43467;50.890;5.982;2023-01-26T00:29:36;101077.19;;;2.10;69.08
36234;BME280;43467;50.890;5.982;2023-01-26T00:32:01;101053.66;;;2.05;68.70
36234;BME280;43467;50.890;5.982;2023-01-26T00:34:26;101056.28;;;2.05;68.57
36234;BME280;43467;50.890;5.982;2023-01-26T00:36:52;101064.16;;;2.23;68.47
36234;BME280;43467;50.890;5.982;2023-01-26T00:39:17;101072.88;;;2.36;68.24
36234;BME280;43467;50.890;5.982;2023-01-26T00:41:42;101070.25;;;2.33;68.04
36234;BME280;43467;50.890;5.982;2023-01-26T00:44:26;101047.59;;;2.38;68.03
36234;BME280;43467;50.890;5.982;2023-01-26T00:46:52;101069.41;;;2.51;67.48
36234;BME280;43467;50.890;5.982;2023-01-26T00:49:17;101051.97;;;2.50;68.07
36234;BME280;43467;50.890;5.982;2023-01-26T00:51:43;101036.28;;;2.38;67.56
36234;BME280;43467;50.890;5.982;2023-01-26T00:54:08;101049.34;;;2.56;67.69
36234;BME280;43467;50.890;5.982;2023-01-26T00:56:33;101044.13;;;2.36;68.45
36234;BME280;43467;50.890;5.982;2023-01-26T00:58:59;101048.47;;;2.28;69.02
36234;BME280;43467;50.890;5.982;2023-01-26T01:01:24;101034.53;;;2.43;69.15
36234;BME280;43467;50.890;5.982;2023-01-26T01:03:49;101041.50;;;2.38;69.09
36234;BME280;43467;50.890;5.982;2023-01-26T01:06:16;101022.31;;;2.13;69.71
36234;BME280;43467;50.890;5.982;2023-01-26T01:08:41;101028.44;;;2.21;68.98
36234;BME280;43467;50.890;5.982;2023-01-26T01:11:09;101023.22;;;2.27;69.19
36234;BME280;43467;50.890;5.982;2023-01-26T01:13:35;101022.34;;;2.26;68.80
36234;BME280;43467;50.890;5.982;2023-01-26T01:16:08;101020.59;;;2.12;69.04
36234;BME280;43467;50.890;5.982;2023-01-26T01:18:34;101018.84;;;2.08;69.45
36234;BME280;43467;50.890;5.982;2023-01-26T01:21:07;101025.84;;;2.19;69.14
36234;BME280;43467;50.890;5.982;2023-01-26T01:23:32;101021.47;;;2.27;69.08
36234;BME280;43467;50.890;5.982;2023-01-26T01:25:59;101015.38;;;2.21;69.22
36234;BME280;43467;50.890;5.982;2023-01-26T01:28:24;101000.56;;;2.24;69.27
36234;BME280;43467;50.890;5.982;2023-01-26T01:30:50;101012.75;;;2.09;69.71
36234;BME280;43467;50.890;5.982;2023-01-26T01:33:15;101009.28;;;2.16;70.11
36234;BME280;43467;50.890;5.982;2023-01-26T01:35:40;100988.38;;;1.99;70.29
36234;BME280;43467;50.890;5.982;2023-01-26T01:38:06;101007.50;;;1.98;71.25
36234;BME280;43467;50.890;5.982;2023-01-26T01:40:31;101001.44;;;1.99;71.42
36234;BME280;43467;50.890;5.982;2023-01-26T01:42:56;101001.41;;;1.90;71.58
36234;BME280;43467;50.890;5.982;2023-01-26T01:47:52;100997.97;;;2.03;71.88
36234;BME280;43467;50.890;5.982;2023-01-26T01:50:19;100995.34;;;2.11;71.35
36234;BME280;43467;50.890;5.982;2023-01-26T01:52:45;100988.38;;;2.07;71.96
36234;BME280;43467;50.890;5.982;2023-01-26T01:55:12;100993.56;;;1.84;71.96
36234;BME280;43467;50.890;5.982;2023-01-26T01:57:43;100997.06;;;1.94;72.17
36234;BME280;43467;50.890;5.982;2023-01-26T02:00:16;100991.81;;;1.87;72.41
36234;BME280;43467;50.890;5.982;2023-01-26T02:02:44;100981.38;;;1.86;72.72
36234;BME280;43467;50.890;5.982;2023-01-26T02:05:32;100988.34;;;1.96;71.70
36234;BME280;43467;50.890;5.982;2023-01-26T02:08:00;100977.03;;;1.97;72.23
36234;BME280;43467;50.890;5.982;2023-01-26T02:10:27;100982.25;;;2.00;71.60
36234;BME280;43467;50.890;5.982;2023-01-26T02:12:54;100988.38;;;2.05;71.55
36234;BME280;43467;50.890;5.982;2023-01-26T02:15:21;100991.84;;;2.06;71.79
36234;BME280;43467;50.890;5.982;2023-01-26T02:17:46;100995.31;;;2.02;72.12
36234;BME280;43467;50.890;5.982;2023-01-26T02:20:18;100991.00;;;1.99;72.18
36234;BME280;43467;50.890;5.982;2023-01-26T02:22:53;100975.28;;;1.82;71.88
36234;BME280;43467;50.890;5.982;2023-01-26T02:27:54;100967.41;;;1.61;73.07
36234;BME280;43467;50.890;5.982;2023-01-26T02:30:21;100969.19;;;1.73;73.06
36234;BME280;43467;50.890;5.982;2023-01-26T02:32:47;100978.75;;;1.80;72.51
36234;BME280;43467;50.890;5.982;2023-01-26T02:35:13;100980.53;;;1.95;72.44
36234;BME280;43467;50.890;5.982;2023-01-26T02:37:38;100966.59;;;1.97;71.66
36234;BME280;43467;50.890;5.982;2023-01-26T02:40:12;100965.72;;;1.98;71.97
36234;BME280;43467;50.890;5.982;2023-01-26T02:42:40;100968.31;;;1.92;71.53
36234;BME280;43467;50.890;5.982;2023-01-26T02:45:12;100973.56;;;1.83;72.08
36234;BME280;43467;50.890;5.982;2023-01-26T02:47:38;100956.13;;;1.88;72.13
36234;BME280;43467;50.890;5.982;2023-01-26T02:50:08;100965.72;;;1.91;71.36
36234;BME280;43467;50.890;5.982;2023-01-26T02:52:33;100950.03;;;1.84;72.03
36234;BME280;43467;50.890;5.982;2023-01-26T02:54:59;100962.22;;;1.81;72.14
36234;BME280;43467;50.890;5.982;2023-01-26T02:57:43;100961.34;;;1.83;71.64
36234;BME280;43467;50.890;5.982;2023-01-26T03:00:12;100957.03;;;1.82;71.83
36234;BME280;43467;50.890;5.982;2023-01-26T03:02:39;100955.28;;;1.78;72.10
36234;BME280;43467;50.890;5.982;2023-01-26T03:05:05;100945.66;;;1.64;72.26
36234;BME280;43467;50.890;5.982;2023-01-26T03:07:31;100949.16;;;1.84;71.78
36234;BME280;43467;50.890;5.982;2023-01-26T03:09:56;100952.63;;;1.68;72.18
36234;BME280;43467;50.890;5.982;2023-01-26T03:12:25;100947.41;;;1.72;72.18
36234;BME280;43467;50.890;5.982;2023-01-26T03:14:51;100950.94;;;1.86;72.20
36234;BME280;43467;50.890;5.982;2023-01-26T03:17:36;100946.56;;;1.76;72.11
36234;BME280;43467;50.890;5.982;2023-01-26T03:20:02;100942.19;;;1.66;72.82
36234;BME280;43467;50.890;5.982;2023-01-26T03:22:46;100946.56;;;1.76;72.89
36234;BME280;43467;50.890;5.982;2023-01-26T03:25:30;100943.09;;;1.85;71.99
36234;BME280;43467;50.890;5.982;2023-01-26T03:28:14;100939.63;;;1.94;71.94
36234;BME280;43467;50.890;5.982;2023-01-26T03:30:40;100937.00;;;1.94;71.55
36234;BME280;43467;50.890;5.982;2023-01-26T03:33:05;100935.25;;;1.79;71.48
36234;BME280;43467;50.890;5.982;2023-01-26T03:35:31;100938.75;;;1.90;71.85
36234;BME280;43467;50.890;5.982;2023-01-26T03:37:56;100939.63;;;1.91;71.81
36234;BME280;43467;50.890;5.982;2023-01-26T03:40:22;100945.72;;;1.91;71.28
36234;BME280;43467;50.890;5.982;2023-01-26T03:43:09;100917.00;;;1.91;71.67
36234;BME280;43467;50.890;5.982;2023-01-26T03:45:53;100937.88;;;2.09;71.14
36234;BME280;43467;50.890;5.982;2023-01-26T03:48:37;100932.66;;;2.18;70.70
36234;BME280;43467;50.890;5.982;2023-01-26T03:51:21;100938.75;;;2.28;71.02
36234;BME280;43467;50.890;5.982;2023-01-26T03:54:05;100944.81;;;2.30;70.45
36234;BME280;43467;50.890;5.982;2023-01-26T03:56:49;100930.06;;;2.03;71.03
36234;BME280;43467;50.890;5.982;2023-01-26T03:59:14;100931.78;;;1.98;71.40
36234;BME280;43467;50.890;5.982;2023-01-26T04:02:02;100923.94;;;2.09;72.12
36234;BME280;43467;50.890;5.982;2023-01-26T04:04:46;100933.50;;;2.13;71.87
36234;BME280;43467;50.890;5.982;2023-01-26T04:07:30;100931.78;;;2.18;71.78
36234;BME280;43467;50.890;5.982;2023-01-26T04:10:14;100919.56;;;2.21;71.35
36234;BME280;43467;50.890;5.982;2023-01-26T04:12:39;100923.97;;;2.07;71.66
36234;BME280;43467;50.890;5.982;2023-01-26T04:15:05;100922.22;;;2.02;71.92
36234;BME280;43467;50.890;5.982;2023-01-26T04:17:50;100903.94;;;1.99;71.66
36234;BME280;43467;50.890;5.982;2023-01-26T04:20:34;100923.97;;;2.03;72.02
36234;BME280;43467;50.890;5.982;2023-01-26T04:23:19;100922.19;;;1.74;72.89
36234;BME280;43467;50.890;5.982;2023-01-26T04:25:46;100936.13;;;1.90;72.81
36234;BME280;43467;50.890;5.982;2023-01-26T04:28:11;100929.19;;;1.95;72.39
36234;BME280;43467;50.890;5.982;2023-01-26T04:30:37;100933.53;;;1.99;71.83
36234;BME280;43467;50.890;5.982;2023-01-26T04:33:03;100938.75;;;1.90;71.87
36234;BME280;43467;50.890;5.982;2023-01-26T04:35:28;100937.00;;;1.95;71.83
36234;BME280;43467;50.890;5.982;2023-01-26T04:37:54;100930.91;;;2.05;72.12
36234;BME280;43467;50.890;5.982;2023-01-26T04:40:19;100930.03;;;2.02;72.10
36234;BME280;43467;50.890;5.982;2023-01-26T04:42:45;100935.28;;;2.15;71.80
36234;BME280;43467;50.890;5.982;2023-01-26T04:45:10;100940.47;;;2.14;71.92
36234;BME280;43467;50.890;5.982;2023-01-26T04:47:35;100931.78;;;2.12;72.00
36234;BME280;43467;50.890;5.982;2023-01-26T04:50:01;100935.28;;;1.99;72.41
36234;BME280;43467;50.890;5.982;2023-01-26T04:52:26;100929.16;;;2.10;72.95
36234;BME280;43467;50.890;5.982;2023-01-26T04:54:52;100931.78;;;2.12;72.73
36234;BME280;43467;50.890;5.982;2023-01-26T04:57:17;100928.28;;;2.20;72.72
36234;BME280;43467;50.890;5.982;2023-01-26T04:59:47;100923.06;;;2.22;72.72
36234;BME280;43467;50.890;5.982;2023-01-26T05:02:12;100928.25;;;2.37;72.43
36234;BME280;43467;50.890;5.982;2023-01-26T05:04:38;100897.81;;;2.25;72.16
36234;BME280;43467;50.890;5.982;2023-01-26T05:07:03;100919.56;;;2.40;72.83
36234;BME280;43467;50.890;5.982;2023-01-26T05:09:29;100920.41;;;2.46;72.95
36234;BME280;43467;50.890;5.982;2023-01-26T05:11:54;100926.47;;;2.57;72.49
36234;BME280;43467;50.890;5.982;2023-01-26T05:14:39;100920.41;;;2.49;73.28
36234;BME280;43467;50.890;5.982;2023-01-26T05:17:05;100915.19;;;2.45;73.09
36234;BME280;43467;50.890;5.982;2023-01-26T05:19:30;100911.72;;;2.38;73.26
36234;BME280;43467;50.890;5.982;2023-01-26T05:21:55;100916.94;;;2.46;73.39
36234;BME280;43467;50.890;5.982;2023-01-26T05:24:21;100916.06;;;2.47;73.50
36234;BME280;43467;50.890;5.982;2023-01-26T05:26:46;100926.50;;;2.50;73.06
36234;BME280;43467;50.890;5.982;2023-01-26T05:29:11;100924.78;;;2.52;73.08
36234;BME280;43467;50.890;5.982;2023-01-26T05:31:37;100922.16;;;2.55;73.49
36234;BME280;43467;50.890;5.982;2023-01-26T05:34:02;100923.91;;;2.47;72.90
36234;BME280;43467;50.890;5.982;2023-01-26T05:36:27;100919.56;;;2.38;73.43
36234;BME280;43467;50.890;5.982;2023-01-26T05:38:53;100919.56;;;2.33;74.08
36234;BME280;43467;50.890;5.982;2023-01-26T05:41:19;100935.25;;;2.40;74.14
36234;BME280;43467;50.890;5.982;2023-01-26T05:43:44;100910.00;;;2.19;74.36
36234;BME280;43467;50.890;5.982;2023-01-26T05:46:09;100925.66;;;2.34;74.15
36234;BME280;43467;50.890;5.982;2023-01-26T05:48:35;100924.78;;;2.44;74.38
36234;BME280;43467;50.890;5.982;2023-01-26T05:51:00;100932.59;;;2.49;74.18
36234;BME280;43467;50.890;5.982;2023-01-26T05:53:26;100925.66;;;2.34;73.97
36234;BME280;43467;50.890;5.982;2023-01-26T05:55:51;100928.25;;;2.32;74.47
36234;BME280;43467;50.890;5.982;2023-01-26T05:58:17;100926.56;;;2.31;74.39
36234;BME280;43467;50.890;5.982;2023-01-26T06:00:42;100928.25;;;2.45;74.59
36234;BME280;43467;50.890;5.982;2023-01-26T06:03:07;100923.03;;;2.45;74.15
36234;BME280;43467;50.890;5.982;2023-01-26T06:05:33;100919.56;;;2.40;74.27
36234;BME280;43467;50.890;5.982;2023-01-26T06:07:58;100930.03;;;2.44;74.52
36234;BME280;43467;50.890;5.982;2023-01-26T06:10:23;100925.66;;;2.42;74.32
36234;BME280;43467;50.890;5.982;2023-01-26T06:12:50;100931.69;;;2.62;74.35
36234;BME280;43467;50.890;5.982;2023-01-26T06:15:15;100925.63;;;2.69;74.05
36234;BME280;43467;50.890;5.982;2023-01-26T06:17:41;100928.19;;;2.76;73.52
36234;BME280;43467;50.890;5.982;2023-01-26T06:20:07;100927.34;;;2.65;74.12
36234;BME280;43467;50.890;5.982;2023-01-26T06:22:33;100928.22;;;2.57;73.83
36234;BME280;43467;50.890;5.982;2023-01-26T06:24:58;100936.06;;;2.58;74.57
36234;BME280;43467;50.890;5.982;2023-01-26T06:27:23;100933.44;;;2.57;74.51
36234;BME280;43467;50.890;5.982;2023-01-26T06:29:49;100926.53;;;2.47;74.67
36234;BME280;43467;50.890;5.982;2023-01-26T06:32:14;100941.31;;;2.54;74.31
36234;BME280;43467;50.890;5.982;2023-01-26T06:34:40;100944.81;;;2.48;74.64
36234;BME280;43467;50.890;5.982;2023-01-26T06:37:06;100945.69;;;2.47;74.59
36234;BME280;43467;50.890;5.982;2023-01-26T06:39:31;100933.50;;;2.36;74.85
36234;BME280;43467;50.890;5.982;2023-01-26T06:41:57;100950.03;;;2.47;74.83
36234;BME280;43467;50.890;5.982;2023-01-26T06:44:22;100948.28;;;2.46;74.69
36234;BME280;43467;50.890;5.982;2023-01-26T06:46:48;100941.31;;;2.42;75.19
36234;BME280;43467;50.890;5.982;2023-01-26T06:49:13;100943.09;;;2.23;75.88
36234;BME280;43467;50.890;5.982;2023-01-26T06:54:17;100950.06;;;2.22;76.20
36234;BME280;43467;50.890;5.982;2023-01-26T06:56:43;100945.69;;;2.24;75.75
36234;BME280;43467;50.890;5.982;2023-01-26T06:59:09;100952.69;;;2.31;76.14
36234;BME280;43467;50.890;5.982;2023-01-26T07:01:45;100944.84;;;2.36;75.28
36234;BME280;43467;50.890;5.982;2023-01-26T07:04:15;100953.53;;;2.43;76.45
36234;BME280;43467;50.890;5.982;2023-01-26T07:06:41;100950.03;;;2.47;75.54
36234;BME280;43467;50.890;5.982;2023-01-26T07:09:07;100946.56;;;2.43;75.74
36234;BME280;43467;50.890;5.982;2023-01-26T07:11:33;100949.16;;;2.51;75.30
36234;BME280;43467;50.890;5.982;2023-01-26T07:13:58;100957.03;;;2.40;74.74
36234;BME280;43467;50.890;5.982;2023-01-26T07:16:24;100950.91;;;2.43;75.88
36234;BME280;43467;50.890;5.982;2023-01-26T07:18:49;100950.91;;;2.47;76.16
36234;BME280;43467;50.890;5.982;2023-01-26T07:21:17;100957.88;;;2.47;75.27
36234;BME280;43467;50.890;5.982;2023-01-26T07:23:43;100958.75;;;2.43;75.42
36234;BME280;43467;50.890;5.982;2023-01-26T07:26:09;100948.28;;;2.46;75.80
36234;BME280;43467;50.890;5.982;2023-01-26T07:28:34;100955.25;;;2.56;75.11
36234;BME280;43467;50.890;5.982;2023-01-26T07:31:00;100954.38;;;2.63;75.48
36234;BME280;43467;50.890;5.982;2023-01-26T07:33:30;100952.59;;;2.75;75.14
36234;BME280;43467;50.890;5.982;2023-01-26T07:35:56;100960.50;;;2.51;74.81
36234;BME280;43467;50.890;5.982;2023-01-26T07:38:22;100961.38;;;2.52;74.99
36234;BME280;43467;50.890;5.982;2023-01-26T07:40:48;100954.38;;;2.58;74.82
36234;BME280;43467;50.890;5.982;2023-01-26T07:43:14;100963.94;;;2.68;74.31
36234;BME280;43467;50.890;5.982;2023-01-26T07:45:43;100968.31;;;2.65;74.08
36234;BME280;43467;50.890;5.982;2023-01-26T07:48:09;100963.09;;;2.59;74.51
36234;BME280;43467;50.890;5.982;2023-01-26T07:50:34;100967.44;;;2.61;75.25
36234;BME280;43467;50.890;5.982;2023-01-26T07:53:00;100970.03;;;2.72;74.96
36234;BME280;43467;50.890;5.982;2023-01-26T07:55:25;100969.16;;;2.71;74.21
36234;BME280;43467;50.890;5.982;2023-01-26T07:57:51;100956.06;;;2.85;74.01
36234;BME280;43467;50.890;5.982;2023-01-26T08:00:16;100947.34;;;2.83;73.85
36234;BME280;43467;50.890;5.982;2023-01-26T08:02:42;100973.50;;;2.88;73.99
36234;BME280;43467;50.890;5.982;2023-01-26T08:05:08;100970.91;;;2.62;74.61
36234;BME280;43467;50.890;5.982;2023-01-26T08:07:34;100977.00;;;2.76;74.88
36234;BME280;43467;50.890;5.982;2023-01-26T08:09:59;100983.94;;;2.83;74.39
36234;BME280;43467;50.890;5.982;2023-01-26T08:12:24;100984.81;;;2.77;74.53
36234;BME280;43467;50.890;5.982;2023-01-26T08:14:50;100983.09;;;2.81;74.27
36234;BME280;43467;50.890;5.982;2023-01-26T08:17:15;100988.31;;;2.73;74.47
36234;BME280;43467;50.890;5.982;2023-01-26T08:19:42;100985.72;;;2.76;74.41
36234;BME280;43467;50.890;5.982;2023-01-26T08:22:08;100989.19;;;2.74;74.32
36234;BME280;43467;50.890;5.982;2023-01-26T08:24:33;100984.00;;;2.60;74.85
36234;BME280;43467;50.890;5.982;2023-01-26T08:26:58;100982.25;;;2.50;75.62
36234;BME280;43467;50.890;5.982;2023-01-26T08:29:24;100987.50;;;2.64;75.75
36234;BME280;43467;50.890;5.982;2023-01-26T08:31:49;100972.66;;;2.57;75.56
36234;BME280;43467;50.890;5.982;2023-01-26T08:34:15;100993.59;;;2.52;75.91
36234;BME280;43467;50.890;5.982;2023-01-26T08:36:40;100989.25;;;2.56;76.34
36234;BME280;43467;50.890;5.982;2023-01-26T08:39:05;100988.38;;;2.34;76.48
36234;BME280;43467;50.890;5.982;2023-01-26T08:41:31;100986.63;;;2.33;76.98
36234;BME280;43467;50.890;5.982;2023-01-26T08:43:57;100985.75;;;2.52;77.00
36234;BME280;43467;50.890;5.982;2023-01-26T08:46:24;100984.88;;;2.43;77.31
36234;BME280;43467;50.890;5.982;2023-01-26T08:48:49;100990.09;;;2.62;76.64
36234;BME280;43467;50.890;5.982;2023-01-26T08:51:15;100993.56;;;2.63;76.19
36234;BME280;43467;50.890;5.982;2023-01-26T08:53:40;100994.47;;;2.56;77.15
36234;BME280;43467;50.890;5.982;2023-01-26T08:56:08;100988.34;;;2.57;77.23
36234;BME280;43467;50.890;5.982;2023-01-26T08:58:34;100998.78;;;2.66;76.87
36234;BME280;43467;50.890;5.982;2023-01-26T09:01:09;100988.34;;;2.58;77.13
36234;BME280;43467;50.890;5.982;2023-01-26T09:03:35;101005.75;;;2.77;77.10
36234;BME280;43467;50.890;5.982;2023-01-26T09:06:01;101004.00;;;2.83;76.20
36234;BME280;43467;50.890;5.982;2023-01-26T09:08:28;101014.47;;;2.87;76.34
36234;BME280;43467;50.890;5.982;2023-01-26T09:10:53;101011.84;;;2.93;76.50
36234;BME280;43467;50.890;5.982;2023-01-26T09:13:19;101007.44;;;2.94;76.48
36234;BME280;43467;50.890;5.982;2023-01-26T09:15:44;101010.97;;;2.93;76.53
36234;BME280;43467;50.890;5.982;2023-01-26T09:18:10;101010.94;;;2.90;76.50
36234;BME280;43467;50.890;5.982;2023-01-26T09:20:38;101008.38;;;2.84;77.17
36234;BME280;43467;50.890;5.982;2023-01-26T09:23:04;101017.97;;;2.85;76.50
36234;BME280;43467;50.890;5.982;2023-01-26T09:25:29;101026.66;;;2.96;76.43
36234;BME280;43467;50.890;5.982;2023-01-26T09:27:55;101028.44;;;2.80;76.93
36234;BME280;43467;50.890;5.982;2023-01-26T09:30:20;101027.56;;;2.75;77.27
36234;BME280;43467;50.890;5.982;2023-01-26T09:32:46;101026.69;;;2.53;78.07
36234;BME280;43467;50.890;5.982;2023-01-26T09:35:11;101031.94;;;2.64;77.96
36234;BME280;43467;50.890;5.982;2023-01-26T09:37:37;101022.34;;;2.64;78.70
36234;BME280;43467;50.890;5.982;2023-01-26T09:40:04;101024.94;;;2.61;78.85
36234;BME280;43467;50.890;5.982;2023-01-26T09:46:00;101024.97;;;2.46;80.15
36234;BME280;43467;50.890;5.982;2023-01-26T09:48:34;101035.41;;;2.55;79.94
36234;BME280;43467;50.890;5.982;2023-01-26T09:51:21;101026.69;;;2.58;78.71
36234;BME280;43467;50.890;5.982;2023-01-26T09:53:56;101024.09;;;2.73;78.53
36234;BME280;43467;50.890;5.982;2023-01-26T09:56:29;101030.16;;;2.78;78.77
36234;BME280;43467;50.890;5.982;2023-01-26T09:59:23;101019.69;;;2.83;78.32
36234;BME280;43467;50.890;5.982;2023-01-26T10:02:18;101019.69;;;2.83;78.64
36234;BME280;43467;50.890;5.982;2023-01-26T10:04:48;101029.28;;;2.84;78.74
36234;BME280;43467;50.890;5.982;2023-01-26T10:07:15;101031.88;;;2.97;78.72
36234;BME280;43467;50.890;5.982;2023-01-26T10:09:45;101036.22;;;3.04;78.27
36234;BME280;43467;50.890;5.982;2023-01-26T10:12:18;101032.75;;;2.92;78.35
36234;BME280;43467;50.890;5.982;2023-01-26T10:14:50;101024.03;;;2.90;78.36
36234;BME280;43467;50.890;5.982;2023-01-26T10:17:26;101030.97;;;3.06;78.50
36234;BME280;43467;50.890;5.982;2023-01-26T10:20:03;101023.13;;;3.06;78.29
36234;BME280;43467;50.890;5.982;2023-01-26T10:22:41;101019.69;;;2.92;78.47
36234;BME280;43467;50.890;5.982;2023-01-26T10:25:17;101022.25;;;3.02;78.66
36234;BME280;43467;50.890;5.982;2023-01-26T10:27:44;101017.03;;;2.95;78.83
36234;BME280;43467;50.890;5.982;2023-01-26T10:30:16;101026.63;;;3.03;78.37
36234;BME280;43467;50.890;5.982;2023-01-26T10:32:43;101020.53;;;3.03;78.47
36234;BME280;43467;50.890;5.982;2023-01-26T10:35:18;101010.03;;;3.16;78.42
36234;BME280;43467;50.890;5.982;2023-01-26T10:37:44;101004.75;;;3.24;78.10
36234;BME280;43467;50.890;5.982;2023-01-26T10:40:10;101009.06;;;3.42;77.91
36234;BME280;43467;50.890;5.982;2023-01-26T10:42:36;100996.88;;;3.27;77.76
36234;BME280;43467;50.890;5.982;2023-01-26T10:45:05;101002.13;;;3.28;77.59
36234;BME280;43467;50.890;5.982;2023-01-26T10:47:31;101004.78;;;3.10;78.10
36234;BME280;43467;50.890;5.982;2023-01-26T10:50:20;100996.06;;;3.11;78.23
36234;BME280;43467;50.890;5.982;2023-01-26T10:52:57;100989.09;;;3.12;78.72
36234;BME280;43467;50.890;5.982;2023-01-26T10:55:23;101002.16;;;3.15;78.72
36234;BME280;43467;50.890;5.982;2023-01-26T10:57:48;100986.56;;;2.92;79.37
36234;BME280;43467;50.890;5.982;2023-01-26T11:02:54;100997.78;;;3.23;78.12
36234;BME280;43467;50.890;5.982;2023-01-26T11:05:23;100996.16;;;2.79;79.71
36234;BME280;43467;50.890;5.982;2023-01-26T11:07:53;100987.47;;;2.76;79.81
36234;BME280;43467;50.890;5.982;2023-01-26T11:10:37;100999.63;;;2.86;79.86
36234;BME280;43467;50.890;5.982;2023-01-26T11:13:15;100997.94;;;2.73;80.02
36234;BME280;43467;50.890;5.982;2023-01-26T11:16:13;100991.78;;;2.86;80.43
36234;BME280;43467;50.890;5.982;2023-01-26T11:21:17;100992.72;;;2.55;80.87
36234;BME280;43467;50.890;5.982;2023-01-26T11:23:47;101004.03;;;2.70;81.72
36234;BME280;43467;50.890;5.982;2023-01-26T11:27:12;101000.59;;;2.44;82.16
36234;BME280;43467;50.890;5.982;2023-01-26T11:34:36;100999.69;;;2.38;83.78
36234;BME280;43467;50.890;5.982;2023-01-26T11:45:37;100986.59;;;2.69;83.17
36234;BME280;43467;50.890;5.982;2023-01-26T11:51:10;100976.94;;;2.90;82.68
36234;BME280;43467;50.890;5.982;2023-01-26T11:54:28;100973.47;;;3.01;82.08
36234;BME280;43467;50.890;5.982;2023-01-26T12:01:38;100967.22;;;3.26;81.61
36234;BME280;43467;50.890;5.982;2023-01-26T12:04:05;100965.47;;;3.32;81.38
36234;BME280;43467;50.890;5.982;2023-01-26T12:06:39;100972.53;;;3.17;81.16
36234;BME280;43467;50.890;5.982;2023-01-26T12:12:16;100966.38;;;3.18;82.66
36234;BME280;43467;50.890;5.982;2023-01-26T12:14:58;100964.59;;;3.33;81.50
36234;BME280;43467;50.890;5.982;2023-01-26T12:23:03;100951.53;;;3.22;81.46
36234;BME280;43467;50.890;5.982;2023-01-26T12:25:34;100945.38;;;3.35;81.78
36234;BME280;43467;50.890;5.982;2023-01-26T12:28:20;100940.13;;;3.41;81.82
36234;BME280;43467;50.890;5.982;2023-01-26T12:31:15;100937.38;;;3.64;81.88
36234;BME280;43467;50.890;5.982;2023-01-26T12:33:42;100935.63;;;3.63;81.03
36234;BME280;43467;50.890;5.982;2023-01-26T12:44:57;100934.09;;;3.28;82.27
36234;BME280;43467;50.890;5.982;2023-01-26T12:53:00;100927.94;;;3.37;83.13
36234;BME280;43467;50.890;5.982;2023-01-26T12:55:35;100918.25;;;3.53;83.11
36234;BME280;43467;50.890;5.982;2023-01-26T12:58:13;100919.19;;;3.41;82.63
36234;BME280;43467;50.890;5.982;2023-01-26T13:01:11;100920.06;;;3.42;82.46
36234;BME280;43467;50.890;5.982;2023-01-26T13:03:38;100918.19;;;3.59;83.12
36234;BME280;43467;50.890;5.982;2023-01-26T13:11:07;100918.25;;;3.47;83.19
36234;BME280;43467;50.890;5.982;2023-01-26T13:13:53;100921.72;;;3.53;82.70
36234;BME280;43467;50.890;5.982;2023-01-26T13:18:53;100921.72;;;3.58;83.39
36234;BME280;43467;50.890;5.982;2023-01-26T13:21:48;100923.44;;;3.60;83.15
36234;BME280;43467;50.890;5.982;2023-01-26T13:26:45;100915.47;;;3.77;82.88
36234;BME280;43467;50.890;5.982;2023-01-26T13:34:41;100920.72;;;3.74;82.59
36234;BME280;43467;50.890;5.982;2023-01-26T13:37:52;100926.78;;;3.79;82.99
36234;BME280;43467;50.890;5.982;2023-01-26T13:40:35;100926.03;;;3.65;83.43
36234;BME280;43467;50.890;5.982;2023-01-26T13:43:22;100927.97;;;3.33;84.55
36234;BME280;43467;50.890;5.982;2023-01-26T13:48:59;100921.94;;;3.11;86.42
36234;BME280;43467;50.890;5.982;2023-01-26T13:51:30;100922.75;;;3.26;86.70
36234;BME280;43467;50.890;5.982;2023-01-26T13:56:36;100913.06;;;3.45;85.99
36234;BME280;43467;50.890;5.982;2023-01-26T13:59:14;100836.59;;;2.96;86.39
36234;BME280;43467;50.890;5.982;2023-01-26T14:01:48;100927.88;;;3.48;86.65
36234;BME280;43467;50.890;5.982;2023-01-26T14:04:16;100913.94;;;3.46;86.55
36234;BME280;43467;50.890;5.982;2023-01-26T14:06:47;100907.81;;;3.50;86.20
36234;BME280;43467;50.890;5.982;2023-01-26T14:09:14;100918.28;;;3.50;86.13
36234;BME280;43467;50.890;5.982;2023-01-26T14:11:40;100912.13;;;3.51;86.10
36234;BME280;43467;50.890;5.982;2023-01-26T14:14:18;100915.59;;;3.56;86.49
36234;BME280;43467;50.890;5.982;2023-01-26T14:16:44;100910.38;;;3.53;86.71
36234;BME280;43467;50.890;5.982;2023-01-26T14:19:15;100901.63;;;3.57;87.08
36234;BME280;43467;50.890;5.982;2023-01-26T14:21:58;100900.75;;;3.58;86.70
36234;BME280;43467;50.890;5.982;2023-01-26T14:24:32;100911.06;;;3.81;86.26
36234;BME280;43467;50.890;5.982;2023-01-26T14:26:59;100908.44;;;3.81;85.88
36234;BME280;43467;50.890;5.982;2023-01-26T14:29:26;100912.97;;;3.62;86.67
36234;BME280;43467;50.890;5.982;2023-01-26T14:31:55;100925.09;;;3.73;87.11
36234;BME280;43467;50.890;5.982;2023-01-26T14:34:27;100925.09;;;3.73;86.92